Antis, Pennsylvania
Current Conditions -  °F | °C
As of 6:53 AM on Thursday 29 Jan 2015 (Local Time) from KAOO Reporting Station
Scattered Clouds Scattered Clouds  
Wind Chill: -10°   Ceiling: Unl
Heat Index: -10°   Visibility: 9mi
Dew Point: -14°   Wind: 0mph
Humidity: 71%   Direction: NA
Pressure: 30.17"   Gusts: NA
Location:  40.6274°N, 78.3392°W
Report Text: KAOO 291153Z AUTO 00000KT 9SM SCT110 M10/M14 A3017 RMK AO2 SLP244 7//// T11001144 11100 21161 58024
Loading
Personal Weather Stations






























Interactive Weather Map New forecast layout! Learn more

10-Day Weather Forecast

Advertisements
Track Severe Weather on mobile